sensor_id;sensor_type;location;lat;lon;timestamp;P1;durP1;ratioP1;P2;durP2;ratioP2
76393;SDS011;65216;51.090;-115.352;2024-02-26T00:00:45;12.70;;;1.70;;
76393;SDS011;65216;51.090;-115.352;2024-02-26T00:03:12;8.60;;;0.90;;
76393;SDS011;65216;51.090;-115.352;2024-02-26T00:05:39;17.60;;;1.20;;
76393;SDS011;65216;51.090;-115.352;2024-02-26T00:08:08;9.50;;;1.20;;
76393;SDS011;65216;51.090;-115.352;2024-02-26T00:10:35;14.90;;;1.50;;
76393;SDS011;65216;51.090;-115.352;2024-02-26T00:13:02;10.50;;;1.30;;
76393;SDS011;65216;51.090;-115.352;2024-02-26T00:15:29;14.70;;;1.60;;
76393;SDS011;65216;51.090;-115.352;2024-02-26T00:17:59;10.50;;;1.60;;
76393;SDS011;65216;51.090;-115.352;2024-02-26T00:20:28;16.50;;;1.40;;
76393;SDS011;65216;51.090;-115.352;2024-02-26T00:22:57;8.90;;;1.20;;
76393;SDS011;65216;51.090;-115.352;2024-02-26T00:25:25;12.40;;;1.60;;
76393;SDS011;65216;51.090;-115.352;2024-02-26T00:27:52;14.00;;;1.40;;
76393;SDS011;65216;51.090;-115.352;2024-02-26T00:30:19;9.30;;;0.90;;
76393;SDS011;65216;51.090;-115.352;2024-02-26T00:32:46;11.40;;;1.00;;
76393;SDS011;65216;51.090;-115.352;2024-02-26T00:35:13;13.30;;;1.40;;
76393;SDS011;65216;51.090;-115.352;2024-02-26T00:37:41;7.80;;;1.20;;
76393;SDS011;65216;51.090;-115.352;2024-02-26T00:40:09;9.80;;;1.30;;
76393;SDS011;65216;51.090;-115.352;2024-02-26T00:42:37;14.00;;;1.30;;
76393;SDS011;65216;51.090;-115.352;2024-02-26T00:45:03;8.60;;;0.90;;
76393;SDS011;65216;51.090;-115.352;2024-02-26T00:47:31;8.70;;;1.20;;
76393;SDS011;65216;51.090;-115.352;2024-02-26T00:50:01;10.20;;;0.90;;
76393;SDS011;65216;51.090;-115.352;2024-02-26T00:52:28;8.40;;;0.90;;
76393;SDS011;65216;51.090;-115.352;2024-02-26T00:54:55;11.50;;;1.00;;
76393;SDS011;65216;51.090;-115.352;2024-02-26T00:57:22;12.10;;;1.20;;
76393;SDS011;65216;51.090;-115.352;2024-02-26T00:59:53;12.80;;;1.30;;
76393;SDS011;65216;51.090;-115.352;2024-02-26T01:02:22;7.20;;;0.90;;
76393;SDS011;65216;51.090;-115.352;2024-02-26T01:04:49;14.50;;;1.20;;
76393;SDS011;65216;51.090;-115.352;2024-02-26T01:07:16;6.80;;;1.00;;
76393;SDS011;65216;51.090;-115.352;2024-02-26T01:09:43;8.80;;;1.10;;
76393;SDS011;65216;51.090;-115.352;2024-02-26T01:12:09;9.70;;;1.00;;
76393;SDS011;65216;51.090;-115.352;2024-02-26T01:14:36;8.50;;;0.80;;
76393;SDS011;65216;51.090;-115.352;2024-02-26T01:17:03;8.70;;;1.00;;
76393;SDS011;65216;51.090;-115.352;2024-02-26T01:19:33;15.60;;;1.70;;
76393;SDS011;65216;51.090;-115.352;2024-02-26T01:22:00;13.20;;;1.20;;
76393;SDS011;65216;51.090;-115.352;2024-02-26T01:24:29;19.20;;;1.50;;
76393;SDS011;65216;51.090;-115.352;2024-02-26T01:26:56;14.00;;;1.20;;
76393;SDS011;65216;51.090;-115.352;2024-02-26T01:29:23;10.70;;;1.80;;
76393;SDS011;65216;51.090;-115.352;2024-02-26T01:31:50;13.90;;;1.30;;
76393;SDS011;65216;51.090;-115.352;2024-02-26T01:34:17;11.10;;;1.40;;
76393;SDS011;65216;51.090;-115.352;2024-02-26T01:36:44;11.00;;;1.00;;
76393;SDS011;65216;51.090;-115.352;2024-02-26T01:39:11;14.90;;;1.90;;
76393;SDS011;65216;51.090;-115.352;2024-02-26T01:41:39;7.80;;;0.90;;
76393;SDS011;65216;51.090;-115.352;2024-02-26T01:44:06;11.70;;;1.10;;
76393;SDS011;65216;51.090;-115.352;2024-02-26T01:46:34;11.90;;;1.20;;
76393;SDS011;65216;51.090;-115.352;2024-02-26T01:49:02;11.10;;;1.20;;
76393;SDS011;65216;51.090;-115.352;2024-02-26T01:51:31;12.90;;;1.50;;
76393;SDS011;65216;51.090;-115.352;2024-02-26T01:54:02;8.50;;;1.60;;
76393;SDS011;65216;51.090;-115.352;2024-02-26T01:56:30;9.20;;;1.30;;
76393;SDS011;65216;51.090;-115.352;2024-02-26T01:58:58;7.80;;;1.10;;
76393;SDS011;65216;51.090;-115.352;2024-02-26T02:01:30;6.70;;;1.00;;
76393;SDS011;65216;51.090;-115.352;2024-02-26T02:04:02;10.50;;;0.90;;
76393;SDS011;65216;51.090;-115.352;2024-02-26T02:06:30;17.00;;;1.30;;
76393;SDS011;65216;51.090;-115.352;2024-02-26T02:08:57;11.40;;;1.10;;
76393;SDS011;65216;51.090;-115.352;2024-02-26T02:11:26;13.20;;;1.60;;
76393;SDS011;65216;51.090;-115.352;2024-02-26T02:13:54;14.60;;;1.40;;
76393;SDS011;65216;51.090;-115.352;2024-02-26T02:16:21;9.00;;;1.70;;
76393;SDS011;65216;51.090;-115.352;2024-02-26T02:18:49;11.20;;;1.30;;
76393;SDS011;65216;51.090;-115.352;2024-02-26T02:21:17;10.10;;;1.00;;
76393;SDS011;65216;51.090;-115.352;2024-02-26T02:23:43;15.10;;;1.20;;
76393;SDS011;65216;51.090;-115.352;2024-02-26T02:26:15;12.60;;;1.30;;
76393;SDS011;65216;51.090;-115.352;2024-02-26T02:28:44;10.10;;;1.30;;
76393;SDS011;65216;51.090;-115.352;2024-02-26T02:31:12;14.70;;;1.50;;
76393;SDS011;65216;51.090;-115.352;2024-02-26T02:33:40;23.00;;;2.00;;
76393;SDS011;65216;51.090;-115.352;2024-02-26T02:36:07;16.20;;;2.00;;
76393;SDS011;65216;51.090;-115.352;2024-02-26T02:38:37;13.00;;;1.10;;
76393;SDS011;65216;51.090;-115.352;2024-02-26T02:41:04;11.10;;;2.00;;
76393;SDS011;65216;51.090;-115.352;2024-02-26T02:43:31;13.30;;;1.60;;
76393;SDS011;65216;51.090;-115.352;2024-02-26T02:46:00;12.40;;;1.50;;
76393;SDS011;65216;51.090;-115.352;2024-02-26T02:48:27;14.80;;;1.60;;
76393;SDS011;65216;51.090;-115.352;2024-02-26T02:50:56;15.30;;;1.40;;
76393;SDS011;65216;51.090;-115.352;2024-02-26T02:53:23;19.60;;;1.60;;
76393;SDS011;65216;51.090;-115.352;2024-02-26T02:55:53;12.10;;;1.40;;
76393;SDS011;65216;51.090;-115.352;2024-02-26T02:58:20;10.40;;;1.50;;
76393;SDS011;65216;51.090;-115.352;2024-02-26T03:00:49;7.80;;;1.20;;
76393;SDS011;65216;51.090;-115.352;2024-02-26T03:03:16;17.00;;;1.80;;
76393;SDS011;65216;51.090;-115.352;2024-02-26T03:05:43;16.60;;;1.60;;
76393;SDS011;65216;51.090;-115.352;2024-02-26T03:08:10;15.30;;;1.50;;
76393;SDS011;65216;51.090;-115.352;2024-02-26T03:10:40;16.50;;;1.70;;
76393;SDS011;65216;51.090;-115.352;2024-02-26T03:13:08;11.40;;;1.20;;
76393;SDS011;65216;51.090;-115.352;2024-02-26T03:15:35;13.60;;;1.30;;
76393;SDS011;65216;51.090;-115.352;2024-02-26T03:18:02;15.00;;;1.50;;
76393;SDS011;65216;51.090;-115.352;2024-02-26T03:20:29;11.10;;;1.40;;
76393;SDS011;65216;51.090;-115.352;2024-02-26T03:22:55;10.60;;;1.20;;
76393;SDS011;65216;51.090;-115.352;2024-02-26T03:25:22;14.10;;;1.60;;
76393;SDS011;65216;51.090;-115.352;2024-02-26T03:27:51;18.10;;;1.60;;
76393;SDS011;65216;51.090;-115.352;2024-02-26T03:30:18;15.50;;;1.30;;
76393;SDS011;65216;51.090;-115.352;2024-02-26T03:32:44;16.10;;;1.40;;
76393;SDS011;65216;51.090;-115.352;2024-02-26T03:35:12;12.20;;;1.40;;
76393;SDS011;65216;51.090;-115.352;2024-02-26T03:37:39;12.00;;;1.50;;
76393;SDS011;65216;51.090;-115.352;2024-02-26T03:40:07;9.70;;;1.00;;
76393;SDS011;65216;51.090;-115.352;2024-02-26T03:42:35;9.50;;;1.30;;
76393;SDS011;65216;51.090;-115.352;2024-02-26T03:45:02;13.40;;;1.40;;
76393;SDS011;65216;51.090;-115.352;2024-02-26T03:47:29;10.30;;;1.70;;
76393;SDS011;65216;51.090;-115.352;2024-02-26T03:49:55;15.30;;;1.60;;
76393;SDS011;65216;51.090;-115.352;2024-02-26T03:52:22;20.20;;;2.50;;
76393;SDS011;65216;51.090;-115.352;2024-02-26T03:54:49;13.30;;;1.40;;
76393;SDS011;65216;51.090;-115.352;2024-02-26T03:57:16;9.00;;;0.90;;
76393;SDS011;65216;51.090;-115.352;2024-02-26T03:59:43;14.30;;;1.30;;
76393;SDS011;65216;51.090;-115.352;2024-02-26T04:02:10;11.40;;;1.30;;
76393;SDS011;65216;51.090;-115.352;2024-02-26T04:04:39;9.40;;;1.30;;
76393;SDS011;65216;51.090;-115.352;2024-02-26T04:07:05;10.60;;;1.70;;
76393;SDS011;65216;51.090;-115.352;2024-02-26T04:09:32;7.60;;;1.00;;
76393;SDS011;65216;51.090;-115.352;2024-02-26T04:11:59;6.50;;;0.70;;
76393;SDS011;65216;51.090;-115.352;2024-02-26T04:14:28;19.20;;;1.60;;
76393;SDS011;65216;51.090;-115.352;2024-02-26T04:16:57;15.40;;;1.30;;
76393;SDS011;65216;51.090;-115.352;2024-02-26T04:19:26;7.60;;;1.30;;
76393;SDS011;65216;51.090;-115.352;2024-02-26T04:21:54;7.30;;;0.80;;
76393;SDS011;65216;51.090;-115.352;2024-02-26T04:24:21;6.70;;;0.60;;
76393;SDS011;65216;51.090;-115.352;2024-02-26T04:26:48;2.30;;;0.60;;
76393;SDS011;65216;51.090;-115.352;2024-02-26T04:29:15;5.00;;;0.60;;
76393;SDS011;65216;51.090;-115.352;2024-02-26T04:31:42;4.30;;;0.60;;
76393;SDS011;65216;51.090;-115.352;2024-02-26T04:34:09;3.70;;;0.40;;
76393;SDS011;65216;51.090;-115.352;2024-02-26T04:36:36;1.90;;;0.50;;
76393;SDS011;65216;51.090;-115.352;2024-02-26T04:39:02;4.90;;;0.40;;
76393;SDS011;65216;51.090;-115.352;2024-02-26T04:41:29;1.00;;;0.30;;
76393;SDS011;65216;51.090;-115.352;2024-02-26T04:43:56;4.10;;;0.40;;
76393;SDS011;65216;51.090;-115.352;2024-02-26T04:46:23;2.90;;;0.40;;
76393;SDS011;65216;51.090;-115.352;2024-02-26T04:48:53;1.80;;;0.40;;
76393;SDS011;65216;51.090;-115.352;2024-02-26T04:51:20;3.10;;;0.50;;
76393;SDS011;65216;51.090;-115.352;2024-02-26T04:53:47;4.00;;;0.60;;
76393;SDS011;65216;51.090;-115.352;2024-02-26T04:56:14;2.30;;;0.50;;
76393;SDS011;65216;51.090;-115.352;2024-02-26T04:58:43;2.90;;;0.50;;
76393;SDS011;65216;51.090;-115.352;2024-02-26T05:01:09;4.00;;;0.60;;
76393;SDS011;65216;51.090;-115.352;2024-02-26T05:03:36;1.90;;;0.40;;
76393;SDS011;65216;51.090;-115.352;2024-02-26T05:06:04;2.10;;;0.40;;
76393;SDS011;65216;51.090;-115.352;2024-02-26T05:08:31;2.60;;;0.50;;
76393;SDS011;65216;51.090;-115.352;2024-02-26T05:10:59;2.30;;;0.40;;
76393;SDS011;65216;51.090;-115.352;2024-02-26T05:13:26;4.40;;;0.60;;
76393;SDS011;65216;51.090;-115.352;2024-02-26T05:15:53;5.50;;;0.60;;
76393;SDS011;65216;51.090;-115.352;2024-02-26T05:18:22;4.70;;;0.50;;
76393;SDS011;65216;51.090;-115.352;2024-02-26T05:20:58;4.70;;;0.60;;
76393;SDS011;65216;51.090;-115.352;2024-02-26T05:23:27;2.30;;;0.40;;
76393;SDS011;65216;51.090;-115.352;2024-02-26T05:25:54;2.60;;;0.40;;
76393;SDS011;65216;51.090;-115.352;2024-02-26T05:28:21;1.90;;;0.30;;
76393;SDS011;65216;51.090;-115.352;2024-02-26T05:30:48;3.60;;;0.50;;
76393;SDS011;65216;51.090;-115.352;2024-02-26T05:33:15;2.70;;;0.40;;
76393;SDS011;65216;51.090;-115.352;2024-02-26T05:35:41;4.10;;;0.70;;
76393;SDS011;65216;51.090;-115.352;2024-02-26T05:38:08;1.50;;;0.40;;
76393;SDS011;65216;51.090;-115.352;2024-02-26T05:40:35;1.00;;;0.30;;
76393;SDS011;65216;51.090;-115.352;2024-02-26T05:43:05;1.40;;;0.30;;
76393;SDS011;65216;51.090;-115.352;2024-02-26T05:45:32;2.80;;;0.50;;
76393;SDS011;65216;51.090;-115.352;2024-02-26T05:48:02;1.80;;;0.30;;
76393;SDS011;65216;51.090;-115.352;2024-02-26T05:50:29;3.40;;;0.30;;
76393;SDS011;65216;51.090;-115.352;2024-02-26T05:52:56;1.20;;;0.30;;
76393;SDS011;65216;51.090;-115.352;2024-02-26T05:55:23;3.00;;;0.60;;
76393;SDS011;65216;51.090;-115.352;2024-02-26T05:57:49;1.70;;;0.30;;
76393;SDS011;65216;51.090;-115.352;2024-02-26T06:00:16;1.80;;;0.30;;
76393;SDS011;65216;51.090;-115.352;2024-02-26T06:02:44;2.70;;;0.40;;
76393;SDS011;65216;51.090;-115.352;2024-02-26T06:05:11;2.50;;;0.50;;
76393;SDS011;65216;51.090;-115.352;2024-02-26T06:07:37;4.70;;;0.50;;
76393;SDS011;65216;51.090;-115.352;2024-02-26T06:10:08;1.50;;;0.50;;
76393;SDS011;65216;51.090;-115.352;2024-02-26T06:12:38;3.10;;;0.30;;
76393;SDS011;65216;51.090;-115.352;2024-02-26T06:15:08;1.80;;;0.40;;
76393;SDS011;65216;51.090;-115.352;2024-02-26T06:17:40;0.80;;;0.30;;
76393;SDS011;65216;51.090;-115.352;2024-02-26T06:20:08;2.00;;;0.70;;
76393;SDS011;65216;51.090;-115.352;2024-02-26T06:22:40;3.40;;;0.60;;
76393;SDS011;65216;51.090;-115.352;2024-02-26T06:25:08;4.30;;;0.80;;
76393;SDS011;65216;51.090;-115.352;2024-02-26T06:27:37;4.20;;;0.50;;
76393;SDS011;65216;51.090;-115.352;2024-02-26T06:30:04;1.50;;;0.40;;
76393;SDS011;65216;51.090;-115.352;2024-02-26T06:32:34;3.00;;;0.50;;
76393;SDS011;65216;51.090;-115.352;2024-02-26T06:35:00;1.10;;;0.40;;
76393;SDS011;65216;51.090;-115.352;2024-02-26T06:37:29;1.00;;;0.20;;
76393;SDS011;65216;51.090;-115.352;2024-02-26T06:40:00;1.10;;;0.40;;
76393;SDS011;65216;51.090;-115.352;2024-02-26T06:42:33;0.90;;;0.30;;
76393;SDS011;65216;51.090;-115.352;2024-02-26T06:45:01;0.30;;;0.10;;
76393;SDS011;65216;51.090;-115.352;2024-02-26T06:47:30;0.90;;;0.30;;
76393;SDS011;65216;51.090;-115.352;2024-02-26T06:49:56;0.40;;;0.20;;
76393;SDS011;65216;51.090;-115.352;2024-02-26T06:52:24;1.50;;;0.20;;
76393;SDS011;65216;51.090;-115.352;2024-02-26T06:54:51;2.50;;;0.20;;
76393;SDS011;65216;51.090;-115.352;2024-02-26T06:57:22;0.90;;;0.20;;
76393;SDS011;65216;51.090;-115.352;2024-02-26T06:59:49;0.60;;;0.10;;
76393;SDS011;65216;51.090;-115.352;2024-02-26T07:02:16;1.10;;;0.20;;
76393;SDS011;65216;51.090;-115.352;2024-02-26T07:04:44;0.50;;;0.10;;
76393;SDS011;65216;51.090;-115.352;2024-02-26T07:07:10;0.30;;;0.20;;
76393;SDS011;65216;51.090;-115.352;2024-02-26T07:09:37;0.70;;;0.10;;
76393;SDS011;65216;51.090;-115.352;2024-02-26T07:12:08;0.50;;;0.10;;
76393;SDS011;65216;51.090;-115.352;2024-02-26T07:14:35;0.20;;;0.10;;
76393;SDS011;65216;51.090;-115.352;2024-02-26T07:17:03;0.40;;;0.20;;
76393;SDS011;65216;51.090;-115.352;2024-02-26T07:19:30;0.20;;;0.00;;
76393;SDS011;65216;51.090;-115.352;2024-02-26T07:21:59;0.00;;;0.00;;
76393;SDS011;65216;51.090;-115.352;2024-02-26T07:24:29;0.50;;;0.10;;
76393;SDS011;65216;51.090;-115.352;2024-02-26T07:26:56;0.50;;;0.20;;
76393;SDS011;65216;51.090;-115.352;2024-02-26T07:29:22;0.80;;;0.10;;
76393;SDS011;65216;51.090;-115.352;2024-02-26T07:31:49;0.40;;;0.00;;
76393;SDS011;65216;51.090;-115.352;2024-02-26T07:34:17;0.70;;;0.10;;
76393;SDS011;65216;51.090;-115.352;2024-02-26T07:36:44;1.10;;;0.10;;
76393;SDS011;65216;51.090;-115.352;2024-02-26T07:39:10;0.10;;;0.10;;
76393;SDS011;65216;51.090;-115.352;2024-02-26T07:41:37;0.10;;;0.00;;
76393;SDS011;65216;51.090;-115.352;2024-02-26T07:44:04;0.50;;;0.20;;
76393;SDS011;65216;51.090;-115.352;2024-02-26T07:46:31;0.00;;;0.00;;
76393;SDS011;65216;51.090;-115.352;2024-02-26T07:48:58;0.80;;;0.10;;
76393;SDS011;65216;51.090;-115.352;2024-02-26T07:51:25;0.00;;;0.00;;
76393;SDS011;65216;51.090;-115.352;2024-02-26T07:53:51;0.10;;;0.00;;
76393;SDS011;65216;51.090;-115.352;2024-02-26T07:56:18;0.30;;;0.10;;
76393;SDS011;65216;51.090;-115.352;2024-02-26T07:58:48;0.20;;;0.00;;
76393;SDS011;65216;51.090;-115.352;2024-02-26T08:01:15;0.20;;;0.00;;
76393;SDS011;65216;51.090;-115.352;2024-02-26T08:03:42;0.60;;;0.20;;
76393;SDS011;65216;51.090;-115.352;2024-02-26T08:06:11;0.20;;;0.10;;
76393;SDS011;65216;51.090;-115.352;2024-02-26T08:08:38;0.00;;;0.00;;
76393;SDS011;65216;51.090;-115.352;2024-02-26T08:11:05;0.40;;;0.10;;
76393;SDS011;65216;51.090;-115.352;2024-02-26T08:13:32;0.00;;;0.00;;
76393;SDS011;65216;51.090;-115.352;2024-02-26T08:15:58;0.10;;;0.00;;
76393;SDS011;65216;51.090;-115.352;2024-02-26T08:18:25;0.10;;;0.10;;
76393;SDS011;65216;51.090;-115.352;2024-02-26T08:20:52;0.20;;;0.10;;
76393;SDS011;65216;51.090;-115.352;2024-02-26T08:23:19;1.10;;;0.20;;
76393;SDS011;65216;51.090;-115.352;2024-02-26T08:25:46;0.20;;;0.10;;
76393;SDS011;65216;51.090;-115.352;2024-02-26T08:28:13;0.70;;;0.10;;
76393;SDS011;65216;51.090;-115.352;2024-02-26T08:30:44;0.20;;;0.00;;
76393;SDS011;65216;51.090;-115.352;2024-02-26T08:33:10;0.50;;;0.00;;
76393;SDS011;65216;51.090;-115.352;2024-02-26T08:35:39;0.10;;;0.10;;
76393;SDS011;65216;51.090;-115.352;2024-02-26T08:38:08;0.00;;;0.00;;
76393;SDS011;65216;51.090;-115.352;2024-02-26T08:40:35;0.10;;;0.10;;
76393;SDS011;65216;51.090;-115.352;2024-02-26T08:43:01;0.10;;;0.00;;
76393;SDS011;65216;51.090;-115.352;2024-02-26T08:45:30;0.10;;;0.10;;
76393;SDS011;65216;51.090;-115.352;2024-02-26T08:47:57;0.10;;;0.10;;
76393;SDS011;65216;51.090;-115.352;2024-02-26T08:50:25;0.10;;;0.10;;
76393;SDS011;65216;51.090;-115.352;2024-02-26T08:52:52;0.10;;;0.10;;
76393;SDS011;65216;51.090;-115.352;2024-02-26T08:55:19;0.30;;;0.10;;
76393;SDS011;65216;51.090;-115.352;2024-02-26T08:57:46;0.60;;;0.20;;
76393;SDS011;65216;51.090;-115.352;2024-02-26T09:00:14;0.20;;;0.20;;
76393;SDS011;65216;51.090;-115.352;2024-02-26T09:02:43;0.70;;;0.10;;
76393;SDS011;65216;51.090;-115.352;2024-02-26T09:05:10;0.00;;;0.00;;
76393;SDS011;65216;51.090;-115.352;2024-02-26T09:07:37;1.80;;;0.20;;
76393;SDS011;65216;51.090;-115.352;2024-02-26T09:10:05;1.50;;;0.30;;
76393;SDS011;65216;51.090;-115.352;2024-02-26T09:12:35;1.20;;;0.20;;
76393;SDS011;65216;51.090;-115.352;2024-02-26T09:15:02;0.30;;;0.10;;
76393;SDS011;65216;51.090;-115.352;2024-02-26T09:17:29;2.00;;;0.20;;
76393;SDS011;65216;51.090;-115.352;2024-02-26T09:19:56;0.30;;;0.10;;
76393;SDS011;65216;51.090;-115.352;2024-02-26T09:22:22;0.20;;;0.10;;
76393;SDS011;65216;51.090;-115.352;2024-02-26T09:24:49;0.80;;;0.10;;
76393;SDS011;65216;51.090;-115.352;2024-02-26T09:27:18;0.10;;;0.10;;
76393;SDS011;65216;51.090;-115.352;2024-02-26T09:29:47;0.10;;;0.00;;
76393;SDS011;65216;51.090;-115.352;2024-02-26T09:32:14;0.80;;;0.20;;
76393;SDS011;65216;51.090;-115.352;2024-02-26T09:34:41;0.50;;;0.20;;
76393;SDS011;65216;51.090;-115.352;2024-02-26T09:37:08;0.00;;;0.00;;
76393;SDS011;65216;51.090;-115.352;2024-02-26T09:39:35;1.50;;;0.10;;
76393;SDS011;65216;51.090;-115.352;2024-02-26T09:42:11;0.30;;;0.20;;
76393;SDS011;65216;51.090;-115.352;2024-02-26T09:44:40;0.70;;;0.20;;
76393;SDS011;65216;51.090;-115.352;2024-02-26T09:47:11;0.90;;;0.30;;
76393;SDS011;65216;51.090;-115.352;2024-02-26T09:49:47;0.30;;;0.20;;
76393;SDS011;65216;51.090;-115.352;2024-02-26T09:52:17;0.30;;;0.10;;
76393;SDS011;65216;51.090;-115.352;2024-02-26T09:54:48;0.30;;;0.30;;
76393;SDS011;65216;51.090;-115.352;2024-02-26T09:57:16;0.30;;;0.10;;
76393;SDS011;65216;51.090;-115.352;2024-02-26T09:59:53;0.10;;;0.10;;
76393;SDS011;65216;51.090;-115.352;2024-02-26T10:02:25;0.40;;;0.20;;
76393;SDS011;65216;51.090;-115.352;2024-02-26T10:04:54;0.60;;;0.20;;
76393;SDS011;65216;51.090;-115.352;2024-02-26T10:07:23;0.00;;;0.00;;
76393;SDS011;65216;51.090;-115.352;2024-02-26T10:09:50;0.30;;;0.00;;
76393;SDS011;65216;51.090;-115.352;2024-02-26T10:12:18;0.10;;;0.10;;
76393;SDS011;65216;51.090;-115.352;2024-02-26T10:14:45;0.60;;;0.20;;
76393;SDS011;65216;51.090;-115.352;2024-02-26T10:17:12;1.00;;;0.40;;
76393;SDS011;65216;51.090;-115.352;2024-02-26T10:19:39;0.20;;;0.10;;
76393;SDS011;65216;51.090;-115.352;2024-02-26T10:22:06;0.10;;;0.10;;
76393;SDS011;65216;51.090;-115.352;2024-02-26T10:24:33;0.20;;;0.10;;
76393;SDS011;65216;51.090;-115.352;2024-02-26T10:27:00;0.10;;;0.10;;
76393;SDS011;65216;51.090;-115.352;2024-02-26T10:29:28;0.30;;;0.20;;
76393;SDS011;65216;51.090;-115.352;2024-02-26T10:31:56;0.50;;;0.30;;
76393;SDS011;65216;51.090;-115.352;2024-02-26T10:34:23;1.10;;;0.20;;
76393;SDS011;65216;51.090;-115.352;2024-02-26T10:36:53;0.40;;;0.20;;
76393;SDS011;65216;51.090;-115.352;2024-02-26T10:39:20;0.60;;;0.20;;
76393;SDS011;65216;51.090;-115.352;2024-02-26T10:41:50;0.60;;;0.10;;
76393;SDS011;65216;51.090;-115.352;2024-02-26T10:44:17;0.50;;;0.20;;
76393;SDS011;65216;51.090;-115.352;2024-02-26T10:46:47;0.60;;;0.30;;
76393;SDS011;65216;51.090;-115.352;2024-02-26T10:49:17;0.20;;;0.10;;
76393;SDS011;65216;51.090;-115.352;2024-02-26T10:51:52;1.80;;;0.20;;
76393;SDS011;65216;51.090;-115.352;2024-02-26T10:54:26;0.20;;;0.20;;
76393;SDS011;65216;51.090;-115.352;2024-02-26T10:56:59;0.30;;;0.20;;
76393;SDS011;65216;51.090;-115.352;2024-02-26T10:59:27;0.30;;;0.20;;
76393;SDS011;65216;51.090;-115.352;2024-02-26T11:01:56;0.30;;;0.00;;
76393;SDS011;65216;51.090;-115.352;2024-02-26T11:04:24;0.40;;;0.20;;
76393;SDS011;65216;51.090;-115.352;2024-02-26T11:06:54;0.50;;;0.20;;
76393;SDS011;65216;51.090;-115.352;2024-02-26T11:09:24;0.20;;;0.10;;
76393;SDS011;65216;51.090;-115.352;2024-02-26T11:11:52;0.70;;;0.20;;
76393;SDS011;65216;51.090;-115.352;2024-02-26T11:14:21;0.60;;;0.20;;
76393;SDS011;65216;51.090;-115.352;2024-02-26T11:16:51;0.40;;;0.10;;
76393;SDS011;65216;51.090;-115.352;2024-02-26T11:19:21;0.60;;;0.20;;
76393;SDS011;65216;51.090;-115.352;2024-02-26T11:21:50;0.50;;;0.20;;
76393;SDS011;65216;51.090;-115.352;2024-02-26T11:24:17;0.70;;;0.20;;
76393;SDS011;65216;51.090;-115.352;2024-02-26T11:26:54;0.30;;;0.10;;
76393;SDS011;65216;51.090;-115.352;2024-02-26T11:29:35;0.20;;;0.10;;
76393;SDS011;65216;51.090;-115.352;2024-02-26T11:32:08;0.70;;;0.20;;
76393;SDS011;65216;51.090;-115.352;2024-02-26T11:34:35;0.50;;;0.10;;
76393;SDS011;65216;51.090;-115.352;2024-02-26T11:37:14;0.60;;;0.10;;
76393;SDS011;65216;51.090;-115.352;2024-02-26T11:39:45;0.60;;;0.20;;
76393;SDS011;65216;51.090;-115.352;2024-02-26T11:42:16;0.20;;;0.20;;
76393;SDS011;65216;51.090;-115.352;2024-02-26T11:44:46;0.60;;;0.20;;
76393;SDS011;65216;51.090;-115.352;2024-02-26T11:49:46;1.00;;;0.30;;
76393;SDS011;65216;51.090;-115.352;2024-02-26T11:52:14;0.20;;;0.10;;
76393;SDS011;65216;51.090;-115.352;2024-02-26T12:00:13;0.10;;;0.00;;
76393;SDS011;65216;51.090;-115.352;2024-02-26T12:02:52;0.50;;;0.10;;
76393;SDS011;65216;51.090;-115.352;2024-02-26T12:08:07;0.50;;;0.20;;
76393;SDS011;65216;51.090;-115.352;2024-02-26T12:10:38;0.30;;;0.10;;
76393;SDS011;65216;51.090;-115.352;2024-02-26T12:13:12;0.70;;;0.20;;
76393;SDS011;65216;51.090;-115.352;2024-02-26T12:15:55;0.20;;;0.20;;
76393;SDS011;65216;51.090;-115.352;2024-02-26T12:18:26;1.60;;;0.20;;
76393;SDS011;65216;51.090;-115.352;2024-02-26T12:21:02;0.20;;;0.10;;
76393;SDS011;65216;51.090;-115.352;2024-02-26T12:23:30;1.10;;;0.20;;
76393;SDS011;65216;51.090;-115.352;2024-02-26T12:26:01;0.20;;;0.10;;
76393;SDS011;65216;51.090;-115.352;2024-02-26T12:28:31;0.10;;;0.10;;
76393;SDS011;65216;51.090;-115.352;2024-02-26T12:30:58;0.40;;;0.20;;
76393;SDS011;65216;51.090;-115.352;2024-02-26T12:33:26;0.10;;;0.00;;
76393;SDS011;65216;51.090;-115.352;2024-02-26T12:35:54;0.50;;;0.10;;
76393;SDS011;65216;51.090;-115.352;2024-02-26T12:38:21;0.40;;;0.20;;
76393;SDS011;65216;51.090;-115.352;2024-02-26T12:40:48;0.20;;;0.10;;
76393;SDS011;65216;51.090;-115.352;2024-02-26T12:43:16;0.00;;;0.00;;
76393;SDS011;65216;51.090;-115.352;2024-02-26T12:45:43;0.30;;;0.10;;
76393;SDS011;65216;51.090;-115.352;2024-02-26T12:48:13;0.40;;;0.20;;
76393;SDS011;65216;51.090;-115.352;2024-02-26T12:50:40;0.70;;;0.20;;
76393;SDS011;65216;51.090;-115.352;2024-02-26T12:53:11;0.40;;;0.10;;
76393;SDS011;65216;51.090;-115.352;2024-02-26T12:55:39;0.20;;;0.00;;
76393;SDS011;65216;51.090;-115.352;2024-02-26T12:58:10;1.60;;;0.30;;
76393;SDS011;65216;51.090;-115.352;2024-02-26T13:00:39;0.20;;;0.10;;
76393;SDS011;65216;51.090;-115.352;2024-02-26T13:03:06;0.40;;;0.10;;
76393;SDS011;65216;51.090;-115.352;2024-02-26T13:05:34;0.50;;;0.10;;
76393;SDS011;65216;51.090;-115.352;2024-02-26T13:08:01;0.20;;;0.20;;
76393;SDS011;65216;51.090;-115.352;2024-02-26T13:10:29;0.40;;;0.10;;
76393;SDS011;65216;51.090;-115.352;2024-02-26T13:12:57;0.30;;;0.10;;
76393;SDS011;65216;51.090;-115.352;2024-02-26T13:15:24;1.20;;;0.20;;
76393;SDS011;65216;51.090;-115.352;2024-02-26T13:17:50;0.10;;;0.10;;
76393;SDS011;65216;51.090;-115.352;2024-02-26T13:20:27;0.20;;;0.10;;
76393;SDS011;65216;51.090;-115.352;2024-02-26T13:23:06;0.20;;;0.10;;
76393;SDS011;65216;51.090;-115.352;2024-02-26T13:25:36;0.10;;;0.00;;
76393;SDS011;65216;51.090;-115.352;2024-02-26T13:28:18;0.30;;;0.10;;
76393;SDS011;65216;51.090;-115.352;2024-02-26T13:30:56;0.50;;;0.10;;
76393;SDS011;65216;51.090;-115.352;2024-02-26T13:33:28;0.80;;;0.10;;
76393;SDS011;65216;51.090;-115.352;2024-02-26T13:35:57;0.60;;;0.10;;
76393;SDS011;65216;51.090;-115.352;2024-02-26T13:38:27;0.70;;;0.10;;
76393;SDS011;65216;51.090;-115.352;2024-02-26T13:43:25;0.20;;;0.10;;
76393;SDS011;65216;51.090;-115.352;2024-02-26T13:45:52;0.40;;;0.30;;
76393;SDS011;65216;51.090;-115.352;2024-02-26T13:48:19;0.40;;;0.30;;
76393;SDS011;65216;51.090;-115.352;2024-02-26T13:50:46;0.90;;;0.10;;
76393;SDS011;65216;51.090;-115.352;2024-02-26T13:53:15;0.70;;;0.10;;
76393;SDS011;65216;51.090;-115.352;2024-02-26T13:55:43;0.20;;;0.10;;
76393;SDS011;65216;51.090;-115.352;2024-02-26T13:58:12;0.50;;;0.30;;
76393;SDS011;65216;51.090;-115.352;2024-02-26T14:00:40;1.20;;;0.20;;
76393;SDS011;65216;51.090;-115.352;2024-02-26T14:03:07;0.30;;;0.20;;
76393;SDS011;65216;51.090;-115.352;2024-02-26T14:05:34;0.80;;;0.20;;
76393;SDS011;65216;51.090;-115.352;2024-02-26T14:08:01;2.10;;;0.20;;
76393;SDS011;65216;51.090;-115.352;2024-02-26T14:10:29;1.10;;;0.00;;
76393;SDS011;65216;51.090;-115.352;2024-02-26T14:12:58;0.60;;;0.20;;
76393;SDS011;65216;51.090;-115.352;2024-02-26T14:15:26;3.60;;;0.40;;
76393;SDS011;65216;51.090;-115.352;2024-02-26T14:17:54;1.20;;;0.30;;
76393;SDS011;65216;51.090;-115.352;2024-02-26T14:20:25;1.90;;;0.40;;
76393;SDS011;65216;51.090;-115.352;2024-02-26T14:22:52;3.60;;;0.40;;
76393;SDS011;65216;51.090;-115.352;2024-02-26T14:25:20;7.50;;;0.50;;